This is the latest recevied weather packets stored in our database for station/object KC0OOO-WX. If no packets are shown the sender has not sent any weather packets the latest 10 day(s).
| Time | Temp. | Humidity | Pressure | Rain* | Wind** | Luminosity | Snow |
|---|---|---|---|---|---|---|---|
| 1777525563 | 3.89° C | 39% | 1019.3 hPa | 0 mm | - | - | - |
| 1777524933 | 3.89° C | 38% | 1019.3 hPa | 0 mm | - | - | - |
| 1777524333 | 4.44° C | 38% | 1019.6 hPa | 0 mm | - | - | - |
| 1777523733 | 5° C | 36% | 1019.6 hPa | 0 mm | - | - | - |
| 1777523133 | 5.56° C | 35% | 1019.6 hPa | 0 mm | - | - | - |
| 1777522533 | 5.56° C | 34% | 1019.6 hPa | 0 mm | - | - | - |
| 1777521933 | 6.11° C | 34% | 1019.6 hPa | 0 mm | - | - | - |
| 1777521333 | 6.67° C | 33% | 1019.3 hPa | 0 mm | - | - | - |
| 1777520734 | 7.22° C | 30% | 1019.3 hPa | 0 mm | - | - | - |
| 1777520133 | 7.22° C | 33% | 1019.3 hPa | 0 mm | - | - | - |
| 1777519533 | 7.78° C | 28% | 1019.3 hPa | 0 mm | - | - | - |
| 1777518933 | 7.78° C | 29% | 1019 hPa | 0 mm | - | - | - |
| 1777518333 | 8.33° C | 29% | 1019 hPa | 0 mm | - | - | - |
| 1777517733 | 8.89° C | 27% | 1018.6 hPa | 0 mm | - | - | - |
| 1777517133 | 10° C | 23% | 1018.6 hPa | 0 mm | - | - | - |
| 1777516533 | 10.56° C | 22% | 1018.6 hPa | 0 mm | - | - | - |
| 1777515903 | 11.11° C | 21% | 1018.6 hPa | 0 mm | - | - | - |
| 1777515303 | 12.22° C | 19% | 1018.3 hPa | 0 mm | - | - | - |
| 1777514703 | 12.78° C | 18% | 1018.3 hPa | 0 mm | - | - | - |
| 1777514102 | 12.78° C | 18% | 1017.9 hPa | 0 mm | - | - | - |
| 1777513502 | 13.33° C | 17% | 1017.9 hPa | 0 mm | - | - | - |
| 1777512902 | 13.33° C | 17% | 1017.9 hPa | 0 mm | - | - | - |
| 1777512302 | 13.89° C | 17% | 1017.6 hPa | 0 mm | - | - | - |
| 1777511702 | 14.44° C | 16% | 1017.6 hPa | 0 mm | - | - | - |
| 1777511102 | 15° C | 16% | 1017.6 hPa | 0 mm | - | - | - |
* Rain latest hour (hover to see other rain measurements)
** Current wind speed in m/s (hover to see current wind gust speed)